Baker, MT

3:40 PM MST on December 21, 2014 (GMT -0700)
Dawson Community | Change Station
CLOSE
Current Station
Airport
Location: Glendive,
Elevation: 2457 ft
Nearby Weather Stations

Elev 2457 ft 47.14 °N, 104.81 °W | Updated 5 minutes ago

Rain
Rain
36 °F
Feels Like 30 °F
N
7
Wind Variable Wind from SW

Today
High -- | Low -- °F
--% Chance of Precip.
Yesterday
High -- | Low -- °F
Precip. -- in
7:37 AM 4:13 PM
Waning Crescent, 0% visible
Pressure 29.36 in
Visibility 9.0 miles
Clouds Few 2100 ft
Overcast 3400 ft
Windchill 30 °F
Dew Point 32 °F
Humidity 87%
Rainfall 0.11 in
Snow Depth Not available.
UV 0 out of 12
Pollen .10 out of 12
Air Quality Not available.
Flu Activity Not available.
METAR KGDV 212235Z AUTO 22006KT 9SM FEW021 OVC034 02/00 A2936 RMK AO1

More Conditions Fewer Conditions

Pressure 29.36 in
Visibility 9.0 miles
Clouds Few 2100 ft
Overcast 3400 ft
Windchill 30 °F
Dew Point 32 °F
Humidity 87%
Rainfall 0.11 in
Snow Depth Not available.
UV 0 out of 12
Pollen .10 out of 12
Air Quality Not available.
Flu Activity Not available.
METAR KGDV 212235Z AUTO 22006KT 9SM FEW021 OVC034 02/00 A2936 RMK AO1

More Conditions Fewer Conditions

10-Day Weather Forecast

Almanac

Astronomy

Dec. 21, 2014 Rise Set
Actual Time
Civil Twilight
Nautical Twilight
Astronomical Twilight
Moon
Length of Visible Light
Length of Day
Tomorrow will be .
, % of the Moon is Illuminated

Today's Extremes

State Highs State Lows

Community

WunderPhotos

Upload Photos

1,779,499 photos uploaded!

WunderBlogs® & News

Nearby

Air Quality

  Air Quality AQ Index Pollutant
Not available.

Snow Depth

Station Depth Elevation

Earthquake Activity

City Distance Mag. Time & Date
Minimum magnitude displayed is 2.5.

Coastal Water Temperatures

Place Temperature

Nearby Weather Stations